Latest Weather Observations for Mildura

IDV60801

Issued at 9:32 pm EDT Monday 16 January 2017 (issued every 30 minutes, with the page automatically refreshed every 10 minutes)

About weather observations | Map of weather stations | Latest weather observations for VIC | Other Formats
Station Details ID: 076031 Name: MILDURA AIRPORT Lat: -34.24 Lon: 142.09 Height: 50.0 m
Data from the previous 72 hours. | See also: Recent months at Mildura
Date/Time
EDT
Temp
°C
App
Temp
°C
Dew
Point
°C
Rel
Hum
%
Delta-T
°C
Wind Press
QNH
hPa
Press
MSL
hPa
Rain since
9am
mm
Dir  Spd
km/h
Gust
km/h
Spd
kts
Gust
kts
16/09:30pm 27.6 25.7 6.9 27 11.0 NE 6 7 3 4 1009.7 1009.5 0.0
16/09:00pm 30.0 28.9 5.3 21 13.0 CALM 0 0 0 0 1009.9 1009.7 0.0
16/08:30pm 33.2 30.4 3.1 15 15.5 E 7 9 4 5 1009.9 1009.7 0.0
16/08:00pm 35.1 31.8 2.6 13 16.8 E 9 13 5 7 1009.7 1009.5 0.0
16/07:30pm 35.8 30.9 -0.5 10 17.9 E 15 20 8 11 1009.4 1009.2 0.0
16/07:00pm 36.8 32.6 -1.2 9 18.7 E 11 20 6 11 1009.2 1009.0 0.0
16/06:30pm 37.7 33.5 -3.9 7 19.7 WSW 9 17 5 9 1009.2 1009.0 0.0
16/06:00pm 37.4 33.7 -4.2 7 19.6 ENE 6 15 3 8 1009.4 1009.2 0.0
16/05:30pm 37.3 32.7 -4.2 7 19.5 WNW 11 19 6 10 1009.7 1009.5 0.0
16/05:00pm 36.9 32.5 -2.7 8 19.0 NW 11 17 6 9 1009.9 1009.7 0.0
16/04:30pm 36.8 32.7 -2.8 8 19.0 WSW 9 20 5 11 1010.2 1010.0 0.0
16/04:00pm 36.0 32.6 -1.8 9 18.3 ENE 6 11 3 6 1010.5 1010.3 0.0
16/03:30pm 36.1 32.7 -0.3 10 18.0 WNW 7 13 4 7 1010.8 1010.6 0.0
16/03:00pm 35.6 32.0 0.6 11 17.6 W 9 17 5 9 1011.2 1011.0 0.0
16/02:30pm 35.1 31.8 0.2 11 17.3 NE 7 11 4 6 1011.6 1011.4 0.0
16/02:00pm 34.0 30.4 0.6 12 16.6 ENE 9 15 5 8 1012.1 1011.9 0.0
16/01:30pm 33.5 29.6 1.3 13 16.1 NNW 11 20 6 11 1012.6 1012.4 0.0
16/01:00pm 32.7 29.3 1.7 14 15.5 N 9 17 5 9 1012.9 1012.7 0.0
16/12:30pm 32.6 29.7 1.7 14 15.5 SSW 6 9 3 5 1013.3 1013.1 0.0
16/12:00pm 31.9 28.7 3.0 16 14.7 N 9 15 5 8 1013.7 1013.5 0.0
16/11:30am 30.6 27.7 4.4 19 13.6 E 9 17 5 9 1013.9 1013.7 0.0
16/11:00am 29.9 27.0 4.5 20 13.1 NE 9 19 5 10 1014.3 1014.1 0.0
16/10:30am 28.9 26.5 6.9 25 11.8 ENE 9 13 5 7 1014.6 1014.4 0.0
16/10:00am 27.0 25.1 8.9 32 9.9 ENE 9 13 5 7 1014.7 1014.5 0.0
16/09:30am 25.5 24.0 9.3 36 8.9 E 7 13 4 7 1014.9 1014.7 0.0
16/09:00am 24.0 22.2 9.6 40 7.9 ESE 9 13 5 7 1014.8 1014.6 0.0
16/08:30am 21.0 19.2 9.3 47 6.2 SE 9 11 5 6 1014.7 1014.5 0.0
16/08:00am 18.6 17.4 9.4 55 4.8 S 6 9 3 5 1014.5 1014.3 0.0
16/07:30am 16.2 14.8 8.9 62 3.8 S 6 9 3 5 1014.5 1014.3 0.0
16/07:00am 13.5 12.5 9.0 74 2.3 SSE 4 7 2 4 1014.2 1014.0 0.0
16/06:30am 13.1 11.5 8.2 72 2.4 SSE 6 7 3 4 1014.1 1013.9 0.0
16/06:00am 13.7 12.1 8.1 69 2.8 SSW 6 7 3 4 1013.9 1013.7 0.0
16/05:30am 14.5 12.7 8.0 65 3.2 SSW 7 9 4 5 1013.6 1013.4 0.0
16/05:00am 14.8 13.2 8.7 67 3.1 SSW 7 7 4 4 1013.3 1013.1 0.0
16/04:30am 15.1 13.5 8.1 63 3.5 S 6 7 3 4 1013.0 1012.8 0.0
16/04:00am 15.9 14.1 7.9 59 4.0 SSW 7 9 4 5 1013.0 1012.8 0.0
16/03:30am 15.5 13.6 9.2 66 3.2 SSW 9 9 5 5 1013.2 1013.0 0.0
16/03:00am 16.3 15.1 9.7 65 3.5 S 6 7 3 4 1013.4 1013.2 0.0
16/02:30am 16.8 15.8 8.8 59 4.1 SE 4 7 2 4 1013.7 1013.5 0.0
16/02:00am 17.6 17.2 8.2 54 4.8 CALM 0 6 0 3 1013.9 1013.7 0.0
16/01:30am 18.0 16.4 8.0 52 5.1 ESE 6 7 3 4 1013.9 1013.7 0.0
16/01:00am 18.9 17.4 8.3 50 5.5 ESE 6 7 3 4 1014.1 1013.9 0.0
16/12:30am 19.4 17.8 7.8 47 6.0 ESE 6 7 3 4 1014.0 1013.8 0.0
16/12:00am 19.6 17.7 7.4 45 6.2 ESE 7 9 4 5 1014.1 1013.9 0.0
 
Date/Time
EDT
Temp
°C
App
Temp
°C
Dew
Point
°C
Rel
Hum
%
Delta-T
°C
Wind Press
QNH
hPa
Press
MSL
hPa
Rain since
9am
mm
Dir  Spd
km/h
Gust
km/h
Spd
kts
Gust
kts
15/11:30pm 20.5 18.6 7.5 43 6.7 SE 7 7 4 4 1014.2 1014.0 0.0
15/11:00pm 21.7 19.6 6.8 38 7.6 SE 7 9 4 5 1014.4 1014.2 0.0
15/10:30pm 21.7 19.8 7.5 40 7.4 SE 7 9 4 5 1014.4 1014.2 0.0
15/10:00pm 22.5 21.1 7.1 37 8.0 SE 4 7 2 4 1014.5 1014.3 0.0
15/09:30pm 24.1 22.0 6.8 33 9.0 SE 7 13 4 7 1014.3 1014.1 0.0
15/09:00pm 26.4 23.5 4.8 25 11.0 SSE 9 11 5 6 1014.2 1014.0 0.0
15/08:30pm 27.9 24.9 4.2 22 12.0 SSE 9 15 5 8 1014.1 1013.9 0.0
15/08:00pm 29.4 25.9 3.4 19 13.1 SSE 11 17 6 9 1014.1 1013.9 0.0
15/07:30pm 30.0 26.0 3.1 18 13.6 S 13 19 7 10 1014.0 1013.8 0.0
15/07:00pm 30.4 26.5 3.4 18 13.7 SE 13 24 7 13 1014.0 1013.8 0.0
15/06:30pm 30.5 26.1 2.7 17 14.0 SSE 15 24 8 13 1014.0 1013.8 0.0
15/06:00pm 30.6 26.4 3.6 18 13.8 S 15 24 8 13 1014.1 1013.9 0.0
15/05:30pm 30.4 26.3 4.2 19 13.5 SSE 15 30 8 16 1014.5 1014.3 0.0
15/05:00pm 30.3 26.2 4.1 19 13.5 S 15 28 8 15 1015.0 1014.8 0.0
15/04:30pm 29.1 24.8 3.1 19 13.0 S 15 24 8 13 1015.4 1015.2 0.0
15/04:00pm 29.1 26.1 5.9 23 12.2 SSE 11 20 6 11 1015.7 1015.5 0.0
15/03:30pm 28.7 25.2 5.5 23 12.1 S 13 24 7 13 1016.0 1015.8 0.0
15/03:00pm 27.6 24.8 6.9 27 11.0 SSE 11 20 6 11 1016.3 1016.1 0.0
15/02:30pm 26.5 22.7 6.0 27 10.6 SE 15 26 8 14 1016.8 1016.6 0.0
15/02:00pm 27.0 24.2 6.9 28 10.6 SSE 11 20 6 11 1017.1 1016.9 0.0
15/01:30pm 25.4 22.0 7.5 32 9.5 S 15 30 8 16 1017.2 1017.0 0.0
15/01:00pm 24.2 20.8 7.8 35 8.7 S 15 24 8 13 1017.5 1017.3 0.0
15/12:30pm 23.5 21.0 8.4 38 8.0 S 11 20 6 11 1018.0 1017.7 0.0
15/12:00pm 22.6 19.8 8.7 41 7.4 SSW 13 24 7 13 1018.3 1018.0 0.0
15/11:30am 21.4 18.4 9.3 46 6.5 SSE 15 22 8 12 1018.6 1018.3 0.0
15/11:00am 21.2 18.8 10.1 49 6.0 SE 13 26 7 14 1018.8 1018.5 0.0
15/10:30am 20.5 17.6 9.7 50 5.8 SE 15 24 8 13 1019.0 1018.7 0.0
15/10:00am 19.3 15.6 9.5 53 5.2 SE 19 26 10 14 1019.1 1018.8 0.0
15/09:30am 17.8 14.2 9.9 60 4.2 SE 19 26 10 14 1019.2 1018.9 0.0
15/09:00am 17.6 13.9 10.0 61 4.0 SE 20 26 11 14 1019.1 1018.8 0.0
15/08:30am 16.4 13.2 10.0 66 3.4 SE 17 24 9 13 1019.1 1018.8 0.0
15/08:00am 15.0 11.7 9.6 70 2.8 SSE 17 24 9 13 1018.9 1018.6 0.0
15/07:30am 13.9 11.1 9.9 77 2.1 S 15 26 8 14 1018.5 1018.2 0.0
15/07:00am 13.1 10.7 9.9 81 1.6 S 13 19 7 10 1017.9 1017.6 0.0
15/06:30am 13.0 11.0 10.0 82 1.5 S 11 15 6 8 1017.4 1017.2 0.0
15/06:00am 13.4 11.4 10.0 80 1.8 S 11 17 6 9 1017.2 1017.0 0.0
15/05:30am 13.8 11.3 9.8 77 2.1 SSE 13 17 7 9 1017.2 1017.0 0.0
15/05:00am 14.2 12.2 10.0 76 2.2 S 11 17 6 9 1017.1 1016.9 0.0
15/04:30am 14.6 12.6 10.0 74 2.4 S 11 19 6 10 1017.0 1016.8 0.0
15/04:00am 15.1 12.7 10.1 72 2.6 S 13 19 7 10 1016.9 1016.7 0.0
15/03:30am 15.6 13.3 10.4 71 2.7 SSW 13 20 7 11 1016.9 1016.7 0.0
15/03:00am 16.1 13.8 10.4 69 3.0 S 13 20 7 11 1017.0 1016.8 0.0
15/02:30am 16.2 13.9 10.5 69 3.0 SSW 13 17 7 9 1017.1 1016.9 0.0
15/02:00am 16.8 14.5 10.4 66 3.4 SSW 13 19 7 10 1017.0 1016.8 0.0
15/01:30am 17.4 15.4 10.1 62 3.9 SSW 11 20 6 11 1016.9 1016.7 0.0
15/01:00am 17.9 15.5 10.0 60 4.2 SSW 13 19 7 10 1016.8 1016.6 0.0
15/12:30am 18.6 15.8 9.9 57 4.6 SSW 15 22 8 12 1016.5 1016.3 0.0
15/12:00am 19.1 16.3 9.9 55 4.9 SSW 15 24 8 13 1016.5 1016.3 0.0
 
Date/Time
EDT
Temp
°C
App
Temp
°C
Dew
Point
°C
Rel
Hum
%
Delta-T
°C
Wind Press
QNH
hPa
Press
MSL
hPa
Rain since
9am
mm
Dir  Spd
km/h
Gust
km/h
Spd
kts
Gust
kts
14/11:30pm 19.6 17.1 9.8 53 5.2 SSW 13 22 7 12 1016.2 1016.0 0.0
14/11:00pm 20.1 18.0 9.7 51 5.6 SSW 11 17 6 9 1015.9 1015.7 0.0
14/10:30pm 20.9 18.0 9.5 48 6.1 SSW 15 20 8 11 1015.6 1015.4 0.0
14/10:00pm 21.6 19.0 9.2 45 6.6 SSW 13 19 7 10 1015.3 1015.1 0.0
14/09:30pm 22.0 19.4 9.2 44 6.9 SSW 13 19 7 10 1015.0 1014.8 0.0
14/09:00pm 22.9 19.0 8.6 40 7.6 SSW 19 32 10 17 1014.7 1014.5 0.0
14/08:30pm 23.7 19.6 8.6 38 8.1 SSW 20 35 11 19 1014.1 1013.9 0.0
14/08:00pm 25.5 22.2 8.1 33 9.3 S 15 28 8 15 1013.6 1013.4 0.0
14/07:30pm 25.9 21.0 7.0 30 10.0 SSW 22 35 12 19 1013.3 1013.1 0.0
14/07:00pm 27.0 23.3 8.0 30 10.2 SSW 17 30 9 16 1013.1 1012.9 0.0
14/06:30pm 27.3 23.0 7.7 29 10.5 SSW 20 33 11 18 1012.8 1012.6 0.0
14/06:00pm 26.7 22.6 7.7 30 10.2 SSW 19 32 10 17 1012.8 1012.6 0.0
14/05:30pm 26.7 21.9 7.2 29 10.4 SSW 22 35 12 19 1012.9 1012.7 0.0
14/05:00pm 26.7 22.4 7.7 30 10.2 SSW 20 33 11 18 1013.1 1012.9 0.0
14/04:30pm 26.6 22.4 7.6 30 10.2 SW 19 30 10 16 1013.2 1013.0 0.0
14/04:00pm 26.3 22.1 7.4 30 10.0 SSW 19 28 10 15 1013.4 1013.2 0.0
14/03:30pm 26.1 22.7 9.0 34 9.3 SSW 17 28 9 15 1013.4 1013.2 0.0
14/03:00pm 25.4 21.3 8.0 33 9.3 SW 19 37 10 20 1013.4 1013.2 0.0
14/02:30pm 24.5 20.7 8.9 37 8.4 SW 19 28 10 15 1013.6 1013.4 0.0
14/02:00pm 24.2 20.4 9.8 40 7.9 SW 20 32 11 17 1013.9 1013.7 0.0
14/01:30pm 24.2 20.7 10.1 41 7.8 SW 19 28 10 15 1014.0 1013.8 0.0
14/01:00pm 24.1 21.1 10.7 43 7.5 SW 17 28 9 15 1014.2 1014.0 0.0
14/12:30pm 22.1 18.5 9.9 46 6.6 SW 19 32 10 17 1014.3 1014.1 0.0
14/12:00pm 22.1 19.0 10.3 47 6.5 SW 17 28 9 15 1014.2 1014.0 0.0
14/11:30am 20.7 16.8 9.6 49 5.9 SSW 20 30 11 16 1014.1 1013.9 0.0
14/11:00am 20.4 17.0 10.5 53 5.4 SW 19 30 10 16 1014.1 1013.9 0.0
14/10:30am 19.5 15.8 10.0 54 5.1 SSW 20 35 11 19 1013.8 1013.6 0.0
14/10:00am 19.2 15.6 10.7 58 4.6 SSW 20 33 11 18 1013.5 1013.3 0.0
14/09:30am 18.4 13.9 10.0 58 4.5 SSW 24 37 13 20 1013.3 1013.1 0.0
14/09:00am 17.6 15.3 11.6 68 3.3 SW 15 24 8 13 1013.2 1013.0 8.4
14/08:30am 16.6 14.2 11.3 71 2.9 SW 15 24 8 13 1012.8 1012.6 8.4
14/08:00am 15.3 13.7 11.5 78 2.0 SW 11 15 6 8 1012.4 1012.2 8.4
14/07:30am 14.2 12.6 11.4 83 1.5 SW 11 15 6 8 1012.0 1011.8 8.4
14/07:00am 13.3 12.0 11.2 87 1.1 WSW 9 13 5 7 1011.6 1011.4 8.4
14/06:30am 13.1 11.9 11.5 90 0.9 WSW 9 13 5 7 1011.3 1011.1 8.4
14/06:00am 13.2 12.0 11.6 90 0.9 WSW 9 11 5 6 1011.1 1010.9 8.4
14/05:30am 13.4 12.2 11.5 88 1.0 WSW 9 13 5 7 1010.8 1010.6 8.4
14/05:00am 13.8 12.6 11.5 86 1.2 WSW 9 11 5 6 1010.3 1010.1 8.4
14/04:30am 14.0 12.8 11.5 85 1.3 WSW 9 13 5 7 1009.7 1009.5 8.4
14/04:00am 14.0 12.8 11.5 85 1.3 SW 9 11 5 6 1009.4 1009.2 8.4
14/03:30am 14.2 13.0 11.5 84 1.4 SW 9 11 5 6 1009.2 1009.0 8.4
14/03:00am 14.8 13.7 11.8 82 1.6 SW 9 13 5 7 1009.3 1009.1 8.4
14/02:30am 15.3 14.2 12.1 81 1.7 SW 9 15 5 8 1009.4 1009.2 8.4
14/02:00am 16.0 14.1 11.8 76 2.3 SW 13 17 7 9 1009.5 1009.3 8.4
14/01:30am 16.2 14.8 12.2 77 2.2 SW 11 20 6 11 1009.5 1009.3 8.4
14/01:00am 16.5 15.5 12.3 76 2.3 SW 9 15 5 8 1009.3 1009.1 8.4
14/12:30am 16.9 15.2 12.6 76 2.4 SW 13 20 7 11 1009.1 1008.9 8.4
14/12:00am 17.8 15.7 12.5 71 3.0 SW 15 24 8 13 1008.8 1008.6 8.4
 
Date/Time
EDT
Temp
°C
App
Temp
°C
Dew
Point
°C
Rel
Hum
%
Delta-T
°C
Wind Press
QNH
hPa
Press
MSL
hPa
Rain since
9am
mm
Dir  Spd
km/h
Gust
km/h
Spd
kts
Gust
kts
13/11:30pm 17.9 16.6 13.6 76 2.4 SW 13 19 7 10 1008.3 1008.1 8.4
13/11:00pm 18.7 16.7 14.0 74 2.7 SW 17 24 9 13 1007.9 1007.7 8.4
13/10:30pm 19.3 18.9 16.3 83 1.8 SW 13 20 7 11 1007.6 1007.4 8.4
13/10:00pm 19.6 20.3 17.9 90 1.1 SW 11 19 6 10 1007.0 1006.8 8.4

Other Formats:

Comma delimited format used in spreadsheet applications
http://www.bom.gov.au/fwo/IDV60801/IDV60801.94693.axf

JavaScript Object Notation format (JSON) in row-major order
http://www.bom.gov.au/fwo/IDV60801/IDV60801.94693.json